Share

Somerset, KY (42501)

RAWS SOMERSET KY US (MSOMK2) Elev 920 ft | 37.05 °N, 84.61 °W | Change Station
Active Advisory: Special Statement

Current weather conditions updated 51 minutes ago

Clear
Clear
77 °F
Feels Like 77 °F
N
5
Wind Variable Wind from West
Gusts 10.0 mph
Sunrise 6:57 AM
Sunset 8:17 PM
Moon Waning Gibbous

Tomorrow is forecast to be nearly the same temperature as today. A few showers developing late tomorrow night.

Pressure 30.12 in
Visibility 10.0 miles
Clouds Clear
Heat Index 77 °F
Dew Point 37 °F
Humidity 24%
Rainfall 0.00 in
Snow Depth Not available.
UV 0 out of 16
Pollen 10.60 out of 12
Air Quality Not available.
Flu Activity Sporadic
METAR KSME 202335Z AUTO 32003KT 10SM CLR 23/01 A3012 RMK AO2

More Conditions Fewer Conditions

Pressure 30.12 in
Visibility 10.0 miles
Clouds Clear
Heat Index 77 °F
Dew Point 37 °F
Humidity 24%
Rainfall 0.00 in
Snow Depth Not available.
UV 0 out of 16
Pollen 10.60 out of 12
Air Quality Not available.
Flu Activity Sporadic
METAR KSME 202335Z AUTO 32003KT 10SM CLR 23/01 A3012 RMK AO2

More Conditions Fewer Conditions

10-Day Weather Forecast

Almanac

Astronomy

Apr. 20, 2014 Rise Set
Actual Time 6:57 AM EDT 8:17 PM EDT
Civil Twilight 6:30 AM EDT 8:44 PM EDT
Nautical Twilight 5:57 AM EDT 9:17 PM EDT
Astronomical Twilight 5:23 AM EDT 9:51 PM EDT
Moon 12:53 AM EDT 11:19 AM EDT
Length of Visible Light 14h 14m
Length of Day
13h 20m
Tomorrow will be 2m 11s longer.
Waning Gibbous, 65% of the Moon is Illuminated
Today
Waning Gibbous
Apr 22
Last Quarter
Apr 29
New
May 6
First Quarter
May 14
Full

Today's Extremes

State Highs State Lows

Community

  • Easter Dance
    Easter Dance
  • spring skiing mount Baker WA
    spring skiing mount Baker WA
  • Morning Sun
    Morning Sun
  • Happy Easter
    Happy Easter
  • after rain
    after rain

WunderPhotos

Upload Photos

1,703,438 photos uploaded!

WunderBlogs® & News

Nearby

Snow Depth

Station Depth Elevation
No new snow has been reported.

Coastal Water Temperatures

Place Temperature
No Stations Reporting

Earthquake Activity

City Distance Mag. Time & Date
No recent earthquake activity has been reported nearby.
Minimum magnitude displayed is 2.5.

Nearby Weather Stations

Station Location Temp. Heat Index Dew Point Humidity Wind Precip. Elev Updated Type
RAWS SOMERSET KY, Ferguson, KY 77 °F 77 °F 37 °F 24% West  at  5 mph 0.00 in / hr 920 ft 7:01 PM EDT MADIS
Clover Pointe, Somerset, KY 75.2 °F 77 °F 38 °F 26% NW  at  1.6 mph 0.00 in / hr 991 ft 7:52 PM EDT Rapid Fire
HALLS BACKYARD WEATHER, SCIENCE HILL, KY 68.4 °F - 37 °F 32% SW  at  0.0 mph 0.00 in / hr 1076 ft 7:52 PM EDT Normal
Burnside, KY 72.3 °F 75 °F 31 °F 22% WNW  at  0.0 mph 0.00 in / hr 1200 ft 7:52 PM EDT Rapid Fire
MSWO, London, KY 71.1 °F 75 °F 34 °F 25% NW  at  0.0 mph 0.00 in / hr 1163 ft 7:52 PM EDT Normal

Show More Stations Show Fewer Stations

What do you think?

We're not finished. Please let us know what you like, what you don't like, and what you are still missing.